createdAt,value
2019-05-19T00:00:54.788Z,14.50
2019-05-19T00:01:59.841Z,15.00
2019-05-19T00:03:04.431Z,15.28
2019-05-19T00:04:09.541Z,16.20
2019-05-19T00:05:14.038Z,16.73
2019-05-19T00:06:19.087Z,16.55
2019-05-19T00:07:23.510Z,16.45
2019-05-19T00:08:28.516Z,16.73
2019-05-19T00:09:32.943Z,14.75
2019-05-19T00:10:38.010Z,15.10
2019-05-19T00:11:42.427Z,15.05
2019-05-19T00:12:47.408Z,15.68
2019-05-19T00:13:51.918Z,16.05
2019-05-19T00:14:58.229Z,16.07
2019-05-19T00:16:02.877Z,15.08
2019-05-19T00:17:07.970Z,14.55
2019-05-19T00:18:12.551Z,15.58
2019-05-19T00:19:26.392Z,17.15
2019-05-19T00:20:23.725Z,15.85
2019-05-19T00:21:28.974Z,15.93
2019-05-19T00:22:33.779Z,13.40
2019-05-19T00:23:38.851Z,15.15
2019-05-19T00:24:43.626Z,14.25
2019-05-19T00:25:48.701Z,15.65
2019-05-19T00:26:53.569Z,15.43
2019-05-19T00:27:58.560Z,13.62
2019-05-19T00:29:03.515Z,14.28
2019-05-19T00:30:09.503Z,14.47
2019-05-19T00:31:14.002Z,14.80
2019-05-19T00:32:19.056Z,15.23
2019-05-19T00:33:23.937Z,14.13
2019-05-19T00:34:28.914Z,13.15
2019-05-19T00:35:33.716Z,12.75
2019-05-19T00:36:38.689Z,13.22
2019-05-19T00:37:43.407Z,14.47
2019-05-19T00:38:48.402Z,12.28
2019-05-19T00:39:52.900Z,15.28
2019-05-19T00:40:58.171Z,14.60
2019-05-19T00:42:02.587Z,12.40
2019-05-19T00:43:07.633Z,12.85
2019-05-19T00:44:12.530Z,12.68
2019-05-19T00:45:18.098Z,16.37
2019-05-19T00:46:23.089Z,13.45
2019-05-19T00:47:28.073Z,14.00
2019-05-19T00:48:32.938Z,15.48
2019-05-19T00:49:41.586Z,19.23
2019-05-19T00:50:45.691Z,24.32
2019-05-19T00:51:50.741Z,21.77
2019-05-19T00:52:55.298Z,13.05
2019-05-19T00:54:00.303Z,14.83
2019-05-19T00:55:08.582Z,14.58
2019-05-19T00:56:14.255Z,14.13
2019-05-19T00:57:19.553Z,12.10
2019-05-19T00:58:27.127Z,13.50
2019-05-19T00:59:31.890Z,12.98
2019-05-19T01:00:37.101Z,13.32
2019-05-19T01:01:41.523Z,16.10
2019-05-19T01:02:46.505Z,13.28
2019-05-19T01:03:50.960Z,13.75
2019-05-19T01:04:57.004Z,13.75
2019-05-19T01:06:01.451Z,15.95
2019-05-19T01:07:06.570Z,15.58
2019-05-19T01:08:10.988Z,14.45
2019-05-19T01:09:16.148Z,13.80
2019-05-19T01:10:20.773Z,14.45
2019-05-19T01:11:25.752Z,12.85
2019-05-19T01:12:30.550Z,15.08
2019-05-19T01:13:35.639Z,14.78
2019-05-19T01:14:40.056Z,13.85
2019-05-19T01:15:45.168Z,15.03
2019-05-19T01:16:49.562Z,15.03
2019-05-19T01:17:54.539Z,12.45
2019-05-19T01:18:59.001Z,13.43
2019-05-19T01:20:05.415Z,12.80
2019-05-19T01:21:10.118Z,14.07
2019-05-19T01:22:15.666Z,13.50
2019-05-19T01:23:20.229Z,16.95
2019-05-19T01:24:25.204Z,14.55
2019-05-19T01:25:30.121Z,18.70
2019-05-19T01:26:35.129Z,14.98
2019-05-19T01:27:39.972Z,13.88
2019-05-19T01:28:45.296Z,14.13
2019-05-19T01:29:49.710Z,15.32
2019-05-19T01:30:54.688Z,14.13
2019-05-19T01:32:00.163Z,12.68
2019-05-19T01:33:05.181Z,12.95
2019-05-19T01:34:09.602Z,14.63
2019-05-19T01:35:14.736Z,13.18
2019-05-19T01:36:19.155Z,14.10
2019-05-19T01:37:24.176Z,13.58
2019-05-19T01:38:28.587Z,12.68
2019-05-19T01:39:33.920Z,12.00
2019-05-19T01:40:39.446Z,11.93
2019-05-19T01:41:44.422Z,15.35
2019-05-19T01:42:48.844Z,15.40
2019-05-19T01:43:53.821Z,13.78
2019-05-19T01:44:58.311Z,13.30
2019-05-19T01:46:03.400Z,21.05
2019-05-19T01:47:07.968Z,14.87
2019-05-19T01:48:12.939Z,13.68
2019-05-19T01:49:17.900Z,16.23
2019-05-19T01:50:24.354Z,15.88
2019-05-19T01:51:28.778Z,16.37
2019-05-19T01:52:33.756Z,15.00
2019-05-19T01:53:38.217Z,14.83
2019-05-19T01:54:43.555Z,17.10
2019-05-19T01:55:48.021Z,16.02
2019-05-19T01:56:53.064Z,15.05
2019-05-19T01:57:57.555Z,14.53
2019-05-19T01:59:02.547Z,16.42
2019-05-19T02:00:09.141Z,17.35
2019-05-19T02:01:14.190Z,17.73
2019-05-19T02:02:18.654Z,16.48
2019-05-19T02:03:24.038Z,18.10
2019-05-19T02:04:28.453Z,16.70
2019-05-19T02:05:33.498Z,16.12
2019-05-19T02:06:38.035Z,12.65
2019-05-19T02:07:43.090Z,15.35
2019-05-19T02:08:47.528Z,14.47
2019-05-19T02:09:52.730Z,13.90
2019-05-19T02:10:57.195Z,15.85
2019-05-19T02:12:03.228Z,13.68
2019-05-19T02:13:08.892Z,14.25
2019-05-19T02:14:14.281Z,14.63
2019-05-19T02:15:19.642Z,14.30
2019-05-19T02:16:25.088Z,15.68
2019-05-19T02:17:29.514Z,14.87
2019-05-19T02:18:34.528Z,15.58
2019-05-19T02:19:39.342Z,14.35
2019-05-19T02:20:45.917Z,13.78
2019-05-19T02:21:50.526Z,13.40
2019-05-19T02:22:55.497Z,13.88
2019-05-19T02:23:59.965Z,13.98
2019-05-19T02:25:05.801Z,17.12
2019-05-19T02:26:10.226Z,15.28
2019-05-19T02:27:15.265Z,16.97
2019-05-19T02:28:19.729Z,17.77
2019-05-19T02:29:24.822Z,19.05
2019-05-19T02:30:29.241Z,17.57
2019-05-19T02:31:34.225Z,17.17
2019-05-19T02:32:39.122Z,17.10
2019-05-19T02:33:44.246Z,19.82
2019-05-19T02:34:48.771Z,17.75
2019-05-19T02:35:54.050Z,18.42
2019-05-19T02:36:58.509Z,17.50
2019-05-19T02:38:03.628Z,17.00
2019-05-19T02:39:08.156Z,18.48
2019-05-19T02:40:13.372Z,17.23
2019-05-19T02:41:20.647Z,16.97
2019-05-19T02:42:28.967Z,18.32
2019-05-19T02:43:34.841Z,19.42
2019-05-19T02:44:40.354Z,16.90
2019-05-19T02:45:45.716Z,17.12
2019-05-19T02:46:52.905Z,17.00
2019-05-19T02:47:59.191Z,21.10
2019-05-19T02:49:04.990Z,20.70
2019-05-19T02:50:10.359Z,17.65
2019-05-19T02:51:17.405Z,18.87
2019-05-19T02:52:23.170Z,16.30
2019-05-19T02:53:29.855Z,17.80
2019-05-19T02:54:36.183Z,19.73
2019-05-19T02:55:41.901Z,18.65
2019-05-19T02:56:48.468Z,19.48
2019-05-19T02:57:54.590Z,20.50
2019-05-19T02:59:00.537Z,28.98
2019-05-19T03:00:09.849Z,25.55
2019-05-19T03:01:14.367Z,40.95
2019-05-19T03:02:19.731Z,36.23
2019-05-19T03:03:24.152Z,42.10
2019-05-19T03:04:29.130Z,53.15
2019-05-19T03:05:33.914Z,65.52
2019-05-19T03:06:38.980Z,66.80
2019-05-19T03:07:43.395Z,89.42
2019-05-19T03:08:48.381Z,95.83
2019-05-19T03:09:53.179Z,58.70
2019-05-19T03:10:58.165Z,46.05
2019-05-19T03:12:02.625Z,42.70
2019-05-19T03:13:07.663Z,31.30
2019-05-19T03:14:12.448Z,30.43
2019-05-19T03:15:17.584Z,25.35
2019-05-19T03:16:22.026Z,23.18
2019-05-19T03:17:27.043Z,18.92
2019-05-19T03:18:31.460Z,17.45
2019-05-19T03:19:36.451Z,18.73
2019-05-19T03:20:41.147Z,28.85
2019-05-19T03:21:46.178Z,21.82
2019-05-19T03:22:50.903Z,19.35
2019-05-19T03:23:55.877Z,21.37
2019-05-19T03:25:01.664Z,17.35
2019-05-19T03:26:06.746Z,18.55
2019-05-19T03:27:11.170Z,18.87
2019-05-19T03:28:16.233Z,16.62
2019-05-19T03:29:25.229Z,19.82
2019-05-19T03:30:34.019Z,16.85
2019-05-19T03:31:56.267Z,16.57
2019-05-19T03:33:05.005Z,17.10
2019-05-19T03:34:10.023Z,17.23
2019-05-19T03:35:14.446Z,20.23
2019-05-19T03:36:19.579Z,18.75
2019-05-19T03:37:24.009Z,14.93
2019-05-19T03:38:29.360Z,16.90
2019-05-19T03:39:33.825Z,19.60
2019-05-19T03:40:38.803Z,17.48
2019-05-19T03:41:43.553Z,16.82
2019-05-19T03:42:50.073Z,16.57
2019-05-19T03:43:54.758Z,15.75
2019-05-19T03:44:59.788Z,14.38
2019-05-19T03:46:04.283Z,16.17
2019-05-19T03:47:09.816Z,16.25
2019-05-19T03:48:15.316Z,16.05
2019-05-19T03:49:20.334Z,14.53
2019-05-19T03:50:24.932Z,15.83
2019-05-19T03:51:31.555Z,15.83
2019-05-19T03:52:36.081Z,16.17
2019-05-19T03:53:41.090Z,15.30
2019-05-19T03:54:45.505Z,16.15
2019-05-19T03:55:50.568Z,15.53
2019-05-19T03:56:55.095Z,14.53
2019-05-19T03:58:00.139Z,14.58
2019-05-19T03:59:04.701Z,14.03
2019-05-19T04:00:12.772Z,14.87
2019-05-19T04:01:17.562Z,16.40
2019-05-19T04:02:22.581Z,13.88
2019-05-19T04:03:27.312Z,15.45
2019-05-19T04:04:32.291Z,16.25
2019-05-19T04:05:36.717Z,16.27
2019-05-19T04:06:41.696Z,16.97
2019-05-19T04:07:46.171Z,14.15
2019-05-19T04:08:51.521Z,14.68
2019-05-19T04:09:55.943Z,13.85
2019-05-19T04:11:01.258Z,14.13
2019-05-19T04:12:05.754Z,13.38
2019-05-19T04:13:10.875Z,14.15
2019-05-19T04:14:15.308Z,16.55
2019-05-19T04:15:20.378Z,18.30
2019-05-19T04:16:25.766Z,15.85
2019-05-19T04:17:31.098Z,17.35
2019-05-19T04:18:35.526Z,16.20
2019-05-19T04:19:40.498Z,15.58
2019-05-19T04:20:44.919Z,18.15
2019-05-19T04:21:49.992Z,14.83
2019-05-19T04:22:54.518Z,16.17
2019-05-19T04:23:59.494Z,17.25
2019-05-19T04:25:04.463Z,16.17
2019-05-19T04:26:09.482Z,17.70
2019-05-19T04:27:13.906Z,14.73
2019-05-19T04:28:19.221Z,14.85
2019-05-19T04:29:23.687Z,16.15
2019-05-19T04:30:28.673Z,17.77
2019-05-19T04:31:33.455Z,16.52
2019-05-19T04:32:38.537Z,15.80
2019-05-19T04:33:42.972Z,17.07
2019-05-19T04:34:48.029Z,17.87
2019-05-19T04:35:52.465Z,17.27
2019-05-19T04:36:57.470Z,16.57
2019-05-19T04:38:01.891Z,17.77
2019-05-19T04:39:07.516Z,16.60
2019-05-19T04:40:12.582Z,19.92
2019-05-19T04:41:17.579Z,20.10
2019-05-19T04:42:22.381Z,17.50
2019-05-19T04:43:27.390Z,16.75
2019-05-19T04:44:33.230Z,17.77
2019-05-19T04:45:38.347Z,16.70
2019-05-19T04:46:42.776Z,17.52
2019-05-19T04:47:48.096Z,17.65
2019-05-19T04:48:52.563Z,19.62
2019-05-19T04:49:57.608Z,17.37
2019-05-19T04:51:02.033Z,17.82
2019-05-19T04:52:07.616Z,17.00
2019-05-19T04:53:12.386Z,18.20
2019-05-19T04:54:17.488Z,16.85
2019-05-19T04:55:21.977Z,17.75
2019-05-19T04:56:26.956Z,20.70
2019-05-19T04:57:31.377Z,17.55
2019-05-19T04:58:36.355Z,17.32
2019-05-19T04:59:41.885Z,18.60
2019-05-19T05:00:46.954Z,17.73
2019-05-19T05:01:51.371Z,18.40
2019-05-19T05:02:56.697Z,18.00
2019-05-19T05:04:01.228Z,17.48
2019-05-19T05:05:07.519Z,16.65
2019-05-19T05:06:11.944Z,16.32
2019-05-19T05:07:17.212Z,18.20
2019-05-19T05:08:29.749Z,18.40
2019-05-19T05:09:28.432Z,16.62
2019-05-19T05:10:32.853Z,18.82
2019-05-19T05:11:38.236Z,16.02
2019-05-19T05:12:42.958Z,18.82
2019-05-19T05:13:48.275Z,20.62
2019-05-19T05:14:52.999Z,17.60
2019-05-19T05:15:57.981Z,17.17
2019-05-19T05:17:02.468Z,16.77
2019-05-19T05:18:07.509Z,20.20
2019-05-19T05:19:11.930Z,19.98
2019-05-19T05:20:17.353Z,17.70
2019-05-19T05:21:21.766Z,17.17
2019-05-19T05:22:26.775Z,18.42
2019-05-19T05:23:31.555Z,17.60
2019-05-19T05:24:36.539Z,16.57
2019-05-19T05:25:41.974Z,18.17
2019-05-19T05:26:46.949Z,18.65
2019-05-19T05:27:51.416Z,19.20
2019-05-19T05:28:56.461Z,20.77
2019-05-19T05:30:01.416Z,17.57
2019-05-19T05:31:07.715Z,19.65
2019-05-19T05:32:12.204Z,17.87
2019-05-19T05:33:17.271Z,17.92
2019-05-19T05:34:23.129Z,17.20
2019-05-19T05:35:28.115Z,17.92
2019-05-19T05:36:32.531Z,18.45
2019-05-19T05:37:37.549Z,15.98
2019-05-19T05:38:41.962Z,17.17
2019-05-19T05:39:47.281Z,18.02
2019-05-19T05:40:51.707Z,17.15
2019-05-19T05:41:56.685Z,18.07
2019-05-19T05:43:01.156Z,19.20
2019-05-19T05:44:06.113Z,17.05
2019-05-19T05:45:12.016Z,18.90
2019-05-19T05:46:17.006Z,18.17
2019-05-19T05:47:21.422Z,17.77
2019-05-19T05:48:26.422Z,20.82
2019-05-19T05:49:30.854Z,20.08
2019-05-19T05:50:36.144Z,19.55
2019-05-19T05:51:40.564Z,17.35
2019-05-19T05:52:45.565Z,19.90
2019-05-19T05:53:49.987Z,19.85
2019-05-19T05:54:56.357Z,19.12
2019-05-19T05:56:00.774Z,18.80
2019-05-19T05:57:05.866Z,18.57
2019-05-19T05:58:10.297Z,18.65
2019-05-19T05:59:15.279Z,17.50
2019-05-19T06:00:19.847Z,18.32
2019-05-19T06:01:25.164Z,18.37
2019-05-19T06:02:29.661Z,19.50
2019-05-19T06:03:34.655Z,18.73
2019-05-19T06:04:39.077Z,17.23
2019-05-19T06:05:44.053Z,18.62
2019-05-19T06:06:48.853Z,19.10
2019-05-19T06:07:54.208Z,17.17
2019-05-19T06:08:58.646Z,16.32
2019-05-19T06:10:03.705Z,18.05
2019-05-19T06:11:08.147Z,19.05
2019-05-19T06:12:13.187Z,17.80
2019-05-19T06:13:17.629Z,18.60
2019-05-19T06:14:22.605Z,19.52
2019-05-19T06:15:27.026Z,15.70
2019-05-19T06:16:32.006Z,16.60
2019-05-19T06:17:36.430Z,18.75
2019-05-19T06:18:41.457Z,17.17
2019-05-19T06:19:45.847Z,18.05
2019-05-19T06:20:50.831Z,16.50
2019-05-19T06:21:55.249Z,18.15
2019-05-19T06:23:00.252Z,18.25
2019-05-19T06:24:04.770Z,18.00
2019-05-19T06:25:09.893Z,17.85
2019-05-19T06:26:14.384Z,18.17
2019-05-19T06:27:19.352Z,18.02
2019-05-19T06:28:27.702Z,18.75
2019-05-19T06:29:34.785Z,19.05
2019-05-19T06:30:40.270Z,18.12
2019-05-19T06:31:46.135Z,19.30
2019-05-19T06:33:01.801Z,17.90
2019-05-19T06:34:09.908Z,18.48
2019-05-19T06:35:16.133Z,17.02
2019-05-19T06:36:25.651Z,17.52
2019-05-19T06:37:32.966Z,17.27
2019-05-19T06:38:38.121Z,16.93
2019-05-19T06:39:42.517Z,15.83
2019-05-19T06:40:52.941Z,16.25
2019-05-19T06:42:02.332Z,16.07
2019-05-19T06:43:11.147Z,16.55
2019-05-19T06:44:18.745Z,14.95
2019-05-19T06:45:27.091Z,15.53
2019-05-19T06:46:31.933Z,14.98
2019-05-19T06:47:36.988Z,14.03
2019-05-19T06:48:41.436Z,14.85
2019-05-19T06:49:46.479Z,14.20
2019-05-19T06:50:51.871Z,17.20
2019-05-19T06:51:56.841Z,14.60
2019-05-19T06:53:13.713Z,14.90
2019-05-19T06:54:07.950Z,15.53
2019-05-19T06:55:12.814Z,14.75
2019-05-19T06:56:17.862Z,14.38
2019-05-19T06:57:22.281Z,14.95
2019-05-19T06:58:27.278Z,14.70
2019-05-19T06:59:31.698Z,14.28
2019-05-19T07:00:36.675Z,12.50
2019-05-19T07:01:41.376Z,29.77
2019-05-19T07:02:46.640Z,21.12
2019-05-19T07:03:51.091Z,24.45
2019-05-19T07:04:56.056Z,15.65
2019-05-19T07:06:00.470Z,17.70
2019-05-19T07:07:06.330Z,12.98
2019-05-19T07:08:12.306Z,12.82
2019-05-19T07:09:23.498Z,13.03
2019-05-19T07:10:38.223Z,12.10
2019-05-19T07:11:43.338Z,11.70
2019-05-19T07:12:47.744Z,11.50
2019-05-19T07:13:53.008Z,10.75
2019-05-19T07:14:57.435Z,11.20
2019-05-19T07:16:02.397Z,11.33
2019-05-19T07:17:07.183Z,9.75
2019-05-19T07:18:12.207Z,10.75
2019-05-19T07:19:16.640Z,12.65
2019-05-19T07:20:21.610Z,9.53
2019-05-19T07:21:26.024Z,9.98
2019-05-19T07:22:31.324Z,10.90
2019-05-19T07:23:35.732Z,10.08
2019-05-19T07:24:40.720Z,11.38
2019-05-19T07:25:45.136Z,9.80
2019-05-19T07:26:50.170Z,8.08
2019-05-19T07:27:54.579Z,7.92
2019-05-19T07:28:59.564Z,8.23
2019-05-19T07:30:06.258Z,8.30
2019-05-19T07:31:11.233Z,8.68
2019-05-19T07:32:15.950Z,9.30
2019-05-19T07:33:21.274Z,7.97
2019-05-19T07:34:26.759Z,7.92
2019-05-19T07:35:32.005Z,9.73
2019-05-19T07:36:36.434Z,8.30
2019-05-19T07:37:41.602Z,7.67
2019-05-19T07:38:45.993Z,6.83
2019-05-19T07:39:51.251Z,7.40
2019-05-19T07:40:56.633Z,7.70
2019-05-19T07:42:02.639Z,7.25
2019-05-19T07:43:07.414Z,7.60
2019-05-19T07:44:12.401Z,8.73
2019-05-19T07:45:16.940Z,8.25
2019-05-19T07:46:22.138Z,8.45
2019-05-19T07:47:26.551Z,8.60
2019-05-19T07:48:31.511Z,7.30
2019-05-19T07:49:35.998Z,7.62
2019-05-19T07:50:41.038Z,10.00
2019-05-19T07:51:45.656Z,7.70
2019-05-19T07:52:50.910Z,7.30
2019-05-19T07:53:55.391Z,7.53
2019-05-19T07:55:00.375Z,8.20
2019-05-19T07:56:04.930Z,7.75
2019-05-19T07:57:10.194Z,9.10
2019-05-19T07:58:14.958Z,8.13
2019-05-19T07:59:19.945Z,8.88
2019-05-19T08:00:24.527Z,7.15
2019-05-19T08:01:29.825Z,8.95
2019-05-19T08:02:34.512Z,7.60
2019-05-19T08:03:39.638Z,7.20
2019-05-19T08:04:44.089Z,7.25
2019-05-19T08:05:49.365Z,7.85
2019-05-19T08:06:53.919Z,6.10
2019-05-19T08:07:58.893Z,6.55
2019-05-19T08:09:05.076Z,7.40
2019-05-19T08:10:10.901Z,7.22
2019-05-19T08:11:16.347Z,6.58
2019-05-19T08:12:21.328Z,6.60
2019-05-19T08:13:25.870Z,7.50
2019-05-19T08:14:31.130Z,7.72
2019-05-19T08:15:35.889Z,9.95
2019-05-19T08:16:41.834Z,7.25
2019-05-19T08:17:46.276Z,6.53
2019-05-19T08:18:51.289Z,12.05
2019-05-19T08:19:56.106Z,7.60
2019-05-19T08:21:01.350Z,7.85
2019-05-19T08:22:05.831Z,8.60
2019-05-19T08:23:11.110Z,8.10
2019-05-19T08:24:15.519Z,7.28
2019-05-19T08:25:20.655Z,6.92
2019-05-19T08:26:25.402Z,6.33
2019-05-19T08:27:30.371Z,9.20
2019-05-19T08:28:35.954Z,7.45
2019-05-19T08:29:40.900Z,8.30
2019-05-19T08:30:45.462Z,8.43
2019-05-19T08:31:50.436Z,8.60
2019-05-19T08:32:54.841Z,9.68
2019-05-19T08:33:59.982Z,11.63
2019-05-19T08:35:05.756Z,9.40
2019-05-19T08:36:10.718Z,9.65
2019-05-19T08:37:15.245Z,10.70
2019-05-19T08:38:20.847Z,35.40
2019-05-19T08:39:25.557Z,10.28
2019-05-19T08:40:30.614Z,11.40
2019-05-19T08:41:35.897Z,10.00
2019-05-19T08:42:40.941Z,10.15
2019-05-19T08:43:45.358Z,11.35
2019-05-19T08:44:50.347Z,10.15
2019-05-19T08:45:54.761Z,9.90
2019-05-19T08:46:59.737Z,10.90
2019-05-19T08:48:04.553Z,10.75
2019-05-19T08:49:09.502Z,10.55
2019-05-19T08:50:14.075Z,11.00
2019-05-19T08:51:19.372Z,11.90
2019-05-19T08:52:24.192Z,20.02
2019-05-19T08:53:29.299Z,9.35
2019-05-19T08:54:33.717Z,9.35
2019-05-19T08:55:38.777Z,11.05
2019-05-19T08:56:43.193Z,11.68
2019-05-19T08:57:48.181Z,12.07
2019-05-19T08:58:52.587Z,9.85
2019-05-19T08:59:57.578Z,9.10
2019-05-19T09:01:01.991Z,8.43
2019-05-19T09:02:07.032Z,9.88
2019-05-19T09:03:11.514Z,10.32
2019-05-19T09:04:16.825Z,8.43
2019-05-19T09:05:21.561Z,10.90
2019-05-19T09:06:26.535Z,10.50
2019-05-19T09:07:30.947Z,10.65
2019-05-19T09:08:36.050Z,9.20
2019-05-19T09:09:40.468Z,10.15
2019-05-19T09:10:45.649Z,9.48
2019-05-19T09:11:50.047Z,11.53
2019-05-19T09:12:55.291Z,8.15
2019-05-19T09:13:59.711Z,7.62
2019-05-19T09:15:06.238Z,7.47
2019-05-19T09:16:10.647Z,7.72
2019-05-19T09:17:15.634Z,6.53
2019-05-19T09:18:20.069Z,8.25
2019-05-19T09:19:25.025Z,8.05
2019-05-19T09:20:29.455Z,9.10
2019-05-19T09:21:34.484Z,12.75
2019-05-19T09:22:39.186Z,7.40
2019-05-19T09:23:44.157Z,9.53
2019-05-19T09:24:48.571Z,7.35
2019-05-19T09:25:53.581Z,214.32
2019-05-19T09:26:58.000Z,11.22
2019-05-19T09:28:03.116Z,8.10
2019-05-19T09:29:07.585Z,8.05
2019-05-19T09:30:12.833Z,8.25
2019-05-19T09:31:17.241Z,7.85
2019-05-19T09:32:22.209Z,9.18
2019-05-19T09:33:26.906Z,8.05
2019-05-19T09:34:32.163Z,7.53
2019-05-19T09:35:36.948Z,8.25
2019-05-19T09:36:41.922Z,8.28
2019-05-19T09:37:46.394Z,7.83
2019-05-19T09:38:51.368Z,13.05
2019-05-19T09:39:56.058Z,10.13
2019-05-19T09:41:01.058Z,13.43
2019-05-19T09:42:05.676Z,9.25
2019-05-19T09:43:10.928Z,17.87
2019-05-19T09:44:15.419Z,8.60
2019-05-19T09:45:20.839Z,8.35
2019-05-19T09:46:25.346Z,8.00
2019-05-19T09:47:30.417Z,11.20
2019-05-19T09:48:34.910Z,8.25
2019-05-19T09:49:40.351Z,9.30
2019-05-19T09:50:45.157Z,9.50
2019-05-19T09:51:50.250Z,8.98
2019-05-19T09:52:54.763Z,7.83
2019-05-19T09:53:59.734Z,9.23
2019-05-19T09:55:05.408Z,9.63
2019-05-19T09:56:10.450Z,9.20
2019-05-19T09:57:14.872Z,9.33
2019-05-19T09:58:20.290Z,9.13
2019-05-19T09:59:24.861Z,12.07
2019-05-19T10:00:30.167Z,7.25
2019-05-19T10:01:34.933Z,7.42
2019-05-19T10:02:39.969Z,7.92
2019-05-19T10:03:44.459Z,5.78
2019-05-19T10:04:49.517Z,7.08
2019-05-19T10:05:53.942Z,7.60
2019-05-19T10:06:59.190Z,7.58
2019-05-19T10:08:03.771Z,8.45
2019-05-19T10:09:11.266Z,7.22
2019-05-19T10:10:20.346Z,6.87
2019-05-19T10:11:47.451Z,6.65
2019-05-19T10:12:51.993Z,9.48
2019-05-19T10:13:57.050Z,6.90
2019-05-19T10:15:02.781Z,33.05
2019-05-19T10:16:09.179Z,7.97
2019-05-19T10:17:13.733Z,20.10
2019-05-19T10:18:18.984Z,12.47
2019-05-19T10:19:23.743Z,6.95
2019-05-19T10:20:28.738Z,7.58
2019-05-19T10:21:33.306Z,8.25
2019-05-19T10:22:38.271Z,7.78
2019-05-19T10:23:42.754Z,6.53
2019-05-19T10:25:03.694Z,7.85
2019-05-19T10:25:53.931Z,7.33
2019-05-19T10:27:00.236Z,7.70
2019-05-19T10:28:04.927Z,8.43
2019-05-19T10:29:09.964Z,6.60
2019-05-19T10:30:14.923Z,9.08
2019-05-19T10:31:19.961Z,7.08
2019-05-19T10:32:24.522Z,6.90
2019-05-19T10:33:29.490Z,8.03
2019-05-19T10:34:33.975Z,9.95
2019-05-19T10:35:39.366Z,7.03
2019-05-19T10:36:43.940Z,8.75
2019-05-19T10:37:49.394Z,7.58
2019-05-19T10:38:54.206Z,8.20
2019-05-19T10:39:59.170Z,9.00
2019-05-19T10:41:03.948Z,8.90
2019-05-19T10:42:09.422Z,9.03
2019-05-19T10:43:13.831Z,8.58
2019-05-19T10:44:19.122Z,7.53
2019-05-19T10:45:23.622Z,8.53
2019-05-19T10:46:29.545Z,14.03
2019-05-19T10:47:34.303Z,10.95
2019-05-19T10:48:39.341Z,7.95
2019-05-19T10:49:43.759Z,9.30
2019-05-19T10:50:48.725Z,9.78
2019-05-19T10:51:53.793Z,7.60
2019-05-19T10:52:59.223Z,8.05
2019-05-19T10:54:03.772Z,7.87
2019-05-19T10:55:09.084Z,8.68
2019-05-19T10:56:13.554Z,8.30
2019-05-19T10:57:18.616Z,7.53
2019-05-19T10:58:23.032Z,10.13
2019-05-19T10:59:28.006Z,9.35
2019-05-19T11:00:32.611Z,7.87
2019-05-19T11:01:38.088Z,7.90
2019-05-19T11:02:42.902Z,10.40
2019-05-19T11:03:47.873Z,10.23
2019-05-19T11:04:52.281Z,8.73
2019-05-19T11:05:57.249Z,8.75
2019-05-19T11:07:01.660Z,7.60
2019-05-19T11:08:06.658Z,9.08
2019-05-19T11:09:11.139Z,7.33
2019-05-19T11:10:16.316Z,7.40
2019-05-19T11:11:20.744Z,7.00
2019-05-19T11:12:25.724Z,8.08
2019-05-19T11:13:30.216Z,7.25
2019-05-19T11:14:35.153Z,7.62
2019-05-19T11:15:39.629Z,8.88
2019-05-19T11:16:44.618Z,8.78
2019-05-19T11:17:49.118Z,8.05
2019-05-19T11:18:54.085Z,7.72
2019-05-19T11:19:58.507Z,7.42
2019-05-19T11:21:03.550Z,9.95
2019-05-19T11:22:07.987Z,7.72
2019-05-19T11:23:12.981Z,7.90
2019-05-19T11:24:17.463Z,7.50
2019-05-19T11:25:33.321Z,7.75
2019-05-19T11:26:29.046Z,7.22
2019-05-19T11:27:34.474Z,9.48
2019-05-19T11:28:38.902Z,13.03
2019-05-19T11:29:43.873Z,8.75
2019-05-19T11:30:49.423Z,8.48
2019-05-19T11:31:54.400Z,8.68
2019-05-19T11:32:58.901Z,8.48
2019-05-19T11:34:03.870Z,9.63
2019-05-19T11:35:08.620Z,9.53
2019-05-19T11:36:13.596Z,9.03
2019-05-19T11:37:17.997Z,9.48
2019-05-19T11:38:22.977Z,9.98
2019-05-19T11:39:27.397Z,9.65
2019-05-19T11:40:32.380Z,9.83
2019-05-19T11:41:36.777Z,11.53
2019-05-19T11:42:41.861Z,8.00
2019-05-19T11:43:47.695Z,13.18
2019-05-19T11:44:52.740Z,10.40
2019-05-19T11:45:57.152Z,9.78
2019-05-19T11:47:02.127Z,10.50
2019-05-19T11:48:06.559Z,8.68
2019-05-19T11:49:11.601Z,9.25
2019-05-19T11:50:16.150Z,9.00
2019-05-19T11:51:21.189Z,8.98
2019-05-19T11:52:25.602Z,10.53
2019-05-19T11:53:30.602Z,10.70
2019-05-19T11:54:35.006Z,10.32
2019-05-19T11:55:40.303Z,9.70
2019-05-19T11:56:44.743Z,9.83
2019-05-19T11:57:50.146Z,9.53
2019-05-19T11:58:54.966Z,9.08
2019-05-19T12:00:00.024Z,10.00
2019-05-19T12:01:04.942Z,10.20
2019-05-19T12:02:09.911Z,9.60
2019-05-19T12:03:14.420Z,11.68
2019-05-19T12:04:19.459Z,10.63
2019-05-19T12:05:23.974Z,9.10
2019-05-19T12:06:38.710Z,11.50
2019-05-19T12:07:35.348Z,9.53
2019-05-19T12:08:40.470Z,9.33
2019-05-19T12:09:45.145Z,9.08
2019-05-19T12:10:50.262Z,11.97
2019-05-19T12:11:54.735Z,9.45
2019-05-19T12:12:59.729Z,10.00
2019-05-19T12:14:04.205Z,9.23
2019-05-19T12:15:09.815Z,9.40
2019-05-19T12:16:14.230Z,9.15
2019-05-19T12:17:19.564Z,10.60
2019-05-19T12:18:23.998Z,10.23
2019-05-19T12:19:28.969Z,9.33
2019-05-19T12:20:33.467Z,12.78
2019-05-19T12:21:38.770Z,10.53
2019-05-19T12:22:43.189Z,11.33
2019-05-19T12:23:48.180Z,12.40
2019-05-19T12:24:54.029Z,10.93
2019-05-19T12:25:59.075Z,11.10
2019-05-19T12:27:03.465Z,10.53
2019-05-19T12:28:08.583Z,11.28
2019-05-19T12:29:13.307Z,11.53
2019-05-19T12:30:20.828Z,13.85
2019-05-19T12:31:25.308Z,10.93
2019-05-19T12:32:30.377Z,11.53
2019-05-19T12:33:34.880Z,11.30
2019-05-19T12:34:39.929Z,11.78
2019-05-19T12:35:44.416Z,10.72
2019-05-19T12:36:49.397Z,9.40
2019-05-19T12:37:54.113Z,11.35
2019-05-19T12:38:59.099Z,11.50
2019-05-19T12:40:04.573Z,11.10
2019-05-19T12:41:09.907Z,9.63
2019-05-19T12:42:14.600Z,11.05
2019-05-19T12:43:19.676Z,12.13
2019-05-19T12:44:24.084Z,10.68
2019-05-19T12:45:30.245Z,11.20
2019-05-19T12:46:34.783Z,11.18
2019-05-19T12:47:39.899Z,10.82
2019-05-19T12:48:44.396Z,10.82
2019-05-19T12:49:49.376Z,13.58
2019-05-19T12:50:54.995Z,12.93
2019-05-19T12:52:00.039Z,10.98
2019-05-19T12:53:04.457Z,11.50
2019-05-19T12:54:09.473Z,11.10
2019-05-19T12:55:14.232Z,10.18
2019-05-19T12:56:19.338Z,10.00
2019-05-19T12:57:23.766Z,11.00
2019-05-19T12:58:28.737Z,12.43
2019-05-19T12:59:33.474Z,11.93
2019-05-19T13:00:38.513Z,41.95
2019-05-19T13:01:42.992Z,409.50
2019-05-19T13:02:48.049Z,589.20
2019-05-19T13:03:52.861Z,143.90
2019-05-19T13:05:04.869Z,56.77
2019-05-19T13:06:04.021Z,18.45
2019-05-19T13:07:09.081Z,13.70
2019-05-19T13:08:13.557Z,17.02
2019-05-19T13:09:18.900Z,9.00
2019-05-19T13:10:23.618Z,14.50
2019-05-19T13:11:28.663Z,11.95
2019-05-19T13:12:33.104Z,11.90
2019-05-19T13:13:38.069Z,9.93
2019-05-19T13:14:42.499Z,7.28
2019-05-19T13:15:47.457Z,6.92
2019-05-19T13:16:51.883Z,5.83
2019-05-19T13:17:56.849Z,6.33
2019-05-19T13:19:01.286Z,8.18
2019-05-19T13:20:06.422Z,9.05
2019-05-19T13:21:10.878Z,7.22
2019-05-19T13:22:15.837Z,9.23
2019-05-19T13:23:20.244Z,12.60
2019-05-19T13:24:25.236Z,6.03
2019-05-19T13:25:31.240Z,10.32
2019-05-19T13:26:36.224Z,9.28
2019-05-19T13:27:40.902Z,10.15
2019-05-19T13:28:45.879Z,9.83
2019-05-19T13:29:50.372Z,9.60
2019-05-19T13:30:55.339Z,8.78
2019-05-19T13:31:59.808Z,10.15
2019-05-19T13:33:05.186Z,8.60
2019-05-19T13:34:09.685Z,8.38
2019-05-19T13:35:15.024Z,8.73
2019-05-19T13:36:19.565Z,9.00
2019-05-19T13:37:24.529Z,8.30
2019-05-19T13:38:28.934Z,9.63
2019-05-19T13:39:33.921Z,7.17
2019-05-19T13:40:38.336Z,9.65
2019-05-19T13:41:43.372Z,9.03
2019-05-19T13:42:48.137Z,8.25
2019-05-19T13:43:53.162Z,11.50
2019-05-19T13:44:57.848Z,8.55
2019-05-19T13:46:03.185Z,9.88
2019-05-19T13:47:06.613Z,6.70
2019-05-19T13:48:11.698Z,8.35
2019-05-19T13:49:16.314Z,6.22
2019-05-19T13:50:21.159Z,7.42
2019-05-19T13:51:26.065Z,8.63
2019-05-19T13:52:30.852Z,6.30
2019-05-19T13:53:35.522Z,7.03
2019-05-19T13:54:40.344Z,5.20
2019-05-19T13:55:44.939Z,5.50
2019-05-19T13:56:49.732Z,6.83
2019-05-19T13:57:54.397Z,5.60
2019-05-19T13:58:59.172Z,4.60
2019-05-19T14:00:04.227Z,5.83
2019-05-19T14:01:10.042Z,5.03
2019-05-19T14:02:14.852Z,4.72
2019-05-19T14:03:19.782Z,4.87
2019-05-19T14:04:24.464Z,4.80
2019-05-19T14:05:30.514Z,5.62
2019-05-19T14:06:36.182Z,5.40
2019-05-19T14:07:40.965Z,7.83
2019-05-19T14:08:45.929Z,4.80